Time;durP1;ratioP1;P1;durP2;ratioP2;P2;SDS_P1;SDS_P2;PMS_P1;PMS_P2;Temp;Humidity;BMP_temperature;BMP_pressure;BME280_temperature;BME280_humidity;BME280_pressure;Samples;Min_cycle;Max_cycle;Signal;HPM_P1;HPM_P2
2021/12/11 00:01:15;;;;;;;8.35;7.55;;;11.60;85.00;;;;;;5097146;28;20381;-76
2021/12/11 00:03:44;;;;;;;8.32;7.25;;;11.60;84.40;;;;;;5093839;28;20059;-83
2021/12/11 00:06:15;;;;;;;7.95;7.10;;;11.60;84.80;;;;;;5075202;28;20025;-83
2021/12/11 00:08:44;;;;;;;8.65;6.88;;;11.50;84.20;;;;;;5088125;28;20093;-82
2021/12/11 00:11:18;;;;;;;8.13;7.30;;;11.50;84.70;;;;;;5091546;28;20119;-82
2021/12/11 00:13:44;;;;;;;7.97;6.55;;;11.50;84.80;;;;;;5094460;28;20027;-80
2021/12/11 00:16:15;;;;;;;7.18;6.47;;;11.40;84.80;;;;;;5092941;28;20542;-80
2021/12/11 00:18:41;;;;;;;7.50;6.78;;;11.40;84.90;;;;;;5094646;28;20024;-82
2021/12/11 00:21:14;;;;;;;7.68;6.55;;;11.40;85.00;;;;;;5094238;28;20077;-79
2021/12/11 00:24:03;;;;;;;7.82;6.80;;;11.40;85.10;;;;;;5094430;28;20535;-80
2021/12/11 00:26:35;;;;;;;6.80;5.55;;;11.30;85.60;;;;;;5093676;28;20020;-81
2021/12/11 00:29:02;;;;;;;6.63;5.70;;;11.30;85.60;;;;;;5092280;28;20028;-80
2021/12/11 00:31:29;;;;;;;6.65;5.50;;;11.40;85.60;;;;;;5094010;28;20032;-80
2021/12/11 00:33:56;;;;;;;6.60;5.78;;;11.40;85.80;;;;;;5094109;28;20028;-78
2021/12/11 00:36:24;;;;;;;6.45;5.63;;;11.30;85.50;;;;;;5093999;28;20515;-79
2021/12/11 00:38:52;;;;;;;6.65;5.55;;;11.30;85.90;;;;;;5093413;28;20012;-80
2021/12/11 00:41:21;;;;;;;6.05;5.45;;;11.30;86.40;;;;;;5093881;28;20016;-79
2021/12/11 00:43:48;;;;;;;6.10;5.53;;;11.30;86.60;;;;;;5092607;28;20032;-79
2021/12/11 00:46:21;;;;;;;7.60;5.35;;;11.30;86.80;;;;;;5093993;28;20115;-79
2021/12/11 00:48:46;;;;;;;8.02;5.03;;;11.30;86.50;;;;;;5093579;28;20383;-78
2021/12/11 00:51:20;;;;;;;5.78;4.90;;;11.30;86.50;;;;;;5089295;28;20040;-79
2021/12/11 00:53:58;;;;;;;5.53;4.50;;;11.30;86.70;;;;;;5091969;28;20020;-75
2021/12/11 00:56:27;;;;;;;5.25;4.40;;;11.30;86.90;;;;;;5094055;28;20123;-79
2021/12/11 00:58:55;;;;;;;4.97;4.05;;;11.30;87.00;;;;;;5093610;28;20485;-79
2021/12/11 01:01:25;;;;;;;4.93;4.22;;;11.30;87.60;;;;;;5093774;28;20024;-70
2021/12/11 01:04:07;;;;;;;5.60;3.95;;;11.20;87.50;;;;;;5093476;28;20115;-73
2021/12/11 01:06:39;;;;;;;6.43;4.38;;;11.20;87.50;;;;;;5093637;28;20028;-78
2021/12/11 01:09:15;;;;;;;6.25;4.40;;;11.20;87.50;;;;;;5093141;28;20019;-70
2021/12/11 01:11:47;;;;;;;9.30;4.18;;;11.30;87.50;;;;;;5093431;28;20043;-67
2021/12/11 01:14:22;;;;;;;8.18;4.28;;;11.30;87.50;;;;;;5092695;28;20043;-77
2021/12/11 01:16:57;;;;;;;5.28;4.25;;;11.20;87.60;;;;;;5093505;28;20031;-76
2021/12/11 01:19:25;;;;;;;4.63;3.08;;;11.30;87.70;;;;;;5092882;28;20369;-69
2021/12/11 01:21:57;;;;;;;6.30;3.40;;;11.30;87.70;;;;;;5093305;28;20099;-64
2021/12/11 01:24:45;;;;;;;5.28;2.40;;;11.20;87.90;;;;;;5093015;28;20103;-72
2021/12/11 01:27:15;;;;;;;4.53;2.75;;;11.30;88.00;;;;;;5093336;28;20024;-77
2021/12/11 01:29:42;;;;;;;4.28;2.72;;;11.30;88.20;;;;;;5092959;28;20021;-76
2021/12/11 01:32:08;;;;;;;5.45;2.40;;;11.20;88.20;;;;;;5093071;28;20055;-63
2021/12/11 01:34:35;;;;;;;5.53;1.98;;;11.30;88.50;;;;;;5093270;28;20024;-63
2021/12/11 01:37:02;;;;;;;5.65;1.90;;;11.30;88.50;;;;;;5093037;28;20028;-71
2021/12/11 01:39:31;;;;;;;5.72;1.60;;;11.30;88.40;;;;;;5092945;28;20027;-64
2021/12/11 01:41:58;;;;;;;5.50;1.08;;;11.30;88.60;;;;;;5093133;28;20020;-66
2021/12/11 01:44:32;;;;;;;5.40;1.30;;;11.30;88.70;;;;;;5092990;28;20032;-63
2021/12/11 01:47:04;;;;;;;8.43;1.38;;;11.30;88.60;;;;;;5093206;28;20024;-63
2021/12/11 01:49:32;;;;;;;3.80;0.85;;;11.40;88.60;;;;;;5084574;28;20473;-64
2021/12/11 01:52:07;;;;;;;5.60;1.05;;;11.40;88.70;;;;;;5072594;28;20072;-64
2021/12/11 01:54:37;;;;;;;6.38;0.93;;;11.40;88.70;;;;;;5072795;28;20120;-65
2021/12/11 01:57:14;;;;;;;6.88;1.25;;;11.40;88.70;;;;;;5072784;28;20035;-73
2021/12/11 01:59:45;;;;;;;8.85;1.13;;;11.40;88.70;;;;;;5072704;28;20028;-77
2021/12/11 02:02:20;;;;;;;8.93;1.30;;;11.40;88.80;;;;;;5072685;28;20081;-74
2021/12/11 02:04:50;;;;;;;7.28;1.05;;;11.40;89.00;;;;;;5072461;28;20116;-75
2021/12/11 02:07:35;;;;;;;6.45;1.35;;;11.40;89.00;;;;;;5072517;28;20020;-76
2021/12/11 02:10:09;;;;;;;10.95;2.38;;;11.40;89.10;;;;;;5072515;28;20123;-76
2021/12/11 02:12:39;;;;;;;10.43;1.17;;;11.40;89.20;;;;;;5072799;28;20029;-76
2021/12/11 02:15:15;;;;;;;7.57;1.50;;;11.40;89.10;;;;;;5072941;28;20523;-76
2021/12/11 02:17:51;;;;;;;9.50;1.33;;;11.50;89.30;;;;;;5080391;28;20058;-76
2021/12/11 02:20:33;;;;;;;6.22;1.52;;;11.40;89.30;;;;;;5092743;28;20086;-75
2021/12/11 02:22:59;;;;;;;7.50;1.10;;;11.40;89.40;;;;;;5093359;28;20038;-73
2021/12/11 02:25:31;;;;;;;10.23;1.70;;;11.40;89.30;;;;;;5095101;28;20158;-75
2021/12/11 02:28:04;;;;;;;15.80;2.30;;;11.50;89.40;;;;;;5083719;28;20024;-74
2021/12/11 02:30:36;;;;;;;9.10;1.38;;;11.40;89.40;;;;;;5091235;28;20032;-73
2021/12/11 02:33:21;;;;;;;12.73;1.73;;;11.50;89.30;;;;;;5094721;28;20035;-75
2021/12/11 02:35:52;;;;;;;8.55;1.38;;;11.50;89.30;;;;;;5094249;28;20107;-75
2021/12/11 02:38:51;;;;;;;11.45;1.70;;;11.50;89.30;;;;;;5096229;28;20347;-74
2021/12/11 02:41:33;;;;;;;7.25;1.58;;;11.50;89.30;;;;;;5062155;28;20115;-73
2021/12/11 02:44:24;;;;;;;10.90;1.98;;;11.40;89.30;;;;;;5093801;28;20036;-75
2021/12/11 02:47:15;;;;;;;6.93;1.40;;;11.40;89.50;;;;;;5083708;28;20477;-74
2021/12/11 02:49:47;;;;;;;9.07;1.30;;;11.40;89.40;;;;;;5064368;28;20043;-71
2021/12/11 02:52:24;;;;;;;9.60;1.40;;;11.40;89.50;;;;;;5075770;28;20115;-74
2021/12/11 02:55:04;;;;;;;10.23;2.22;;;11.40;89.40;;;;;;5075759;28;20016;-68
2021/12/11 02:57:43;;;;;;;7.72;1.83;;;11.40;89.40;;;;;;5075711;28;20051;-75
2021/12/11 03:00:18;;;;;;;14.63;2.72;;;11.50;89.40;;;;;;5075512;28;20055;-75
2021/12/11 03:02:49;;;;;;;14.50;1.77;;;11.40;89.40;;;;;;5075577;28;20021;-70
2021/12/11 03:05:20;;;;;;;13.18;1.83;;;11.40;89.80;;;;;;5073823;28;20160;-73
2021/12/11 03:07:51;;;;;;;15.55;2.70;;;11.40;89.80;;;;;;5074264;28;20028;-72
2021/12/11 03:10:23;;;;;;;10.07;1.75;;;11.40;90.00;;;;;;5075287;28;20123;-67
2021/12/11 03:12:49;;;;;;;10.35;2.47;;;11.40;90.00;;;;;;5074280;28;20024;-73
2021/12/11 03:15:17;;;;;;;15.00;2.20;;;11.40;89.90;;;;;;5075023;28;20029;-73
2021/12/11 03:17:44;;;;;;;14.38;2.40;;;11.40;89.90;;;;;;5075345;28;20048;-71
2021/12/11 03:20:13;;;;;;;12.25;2.28;;;11.40;90.00;;;;;;5074953;28;20059;-74
2021/12/11 03:22:42;;;;;;;12.95;2.10;;;11.40;90.00;;;;;;5075442;28;20119;-69
2021/12/11 03:25:12;;;;;;;10.38;1.60;;;11.40;90.10;;;;;;5075103;28;20044;-74
2021/12/11 03:27:37;;;;;;;12.00;1.90;;;11.40;90.10;;;;;;5074993;28;20508;-71
2021/12/11 03:30:08;;;;;;;8.57;1.50;;;11.40;90.10;;;;;;5074526;28;20032;-71
2021/12/11 03:32:35;;;;;;;8.77;1.80;;;11.40;90.20;;;;;;5078660;28;20103;-73
2021/12/11 03:35:01;;;;;;;7.78;1.75;;;11.40;90.30;;;;;;5073160;28;20028;-68
2021/12/11 03:37:27;;;;;;;6.78;1.45;;;11.40;90.30;;;;;;5087644;28;20122;-71
2021/12/11 03:39:55;;;;;;;11.98;1.88;;;11.40;90.40;;;;;;5095191;28;20373;-70
2021/12/11 03:42:31;;;;;;;10.93;1.98;;;11.40;90.30;;;;;;5094874;28;20032;-68
2021/12/11 03:44:59;;;;;;;11.63;1.60;;;11.30;90.20;;;;;;5095109;28;20039;-75
2021/12/11 03:47:30;;;;;;;6.50;1.60;;;11.30;90.10;;;;;;5094606;28;20024;-71
2021/12/11 03:49:56;;;;;;;14.05;2.55;;;11.30;90.10;;;;;;5093879;28;20036;-74
2021/12/11 03:52:23;;;;;;;7.45;1.30;;;11.30;90.10;;;;;;5095419;28;20150;-73
2021/12/11 03:54:51;;;;;;;11.07;1.77;;;11.30;90.10;;;;;;5095043;28;20020;-72
2021/12/11 03:57:22;;;;;;;10.48;1.83;;;11.30;90.20;;;;;;5095358;28;20465;-73
2021/12/11 03:59:49;;;;;;;8.32;1.75;;;11.30;90.20;;;;;;5077082;28;20024;-73
2021/12/11 04:02:21;;;;;;;12.20;1.92;;;11.30;90.20;;;;;;5086759;28;20067;-72
2021/12/11 04:04:49;;;;;;;;;;;11.30;90.30;;;;;;5095095;28;20016;-75
2021/12/11 04:07:19;;;;;;;8.43;1.65;;;11.30;90.20;;;;;;5094399;28;19904;-70
2021/12/11 04:09:45;;;;;;;7.50;1.40;;;11.30;90.20;;;;;;5094683;28;20024;-75
2021/12/11 04:12:11;;;;;;;8.68;1.63;;;11.30;90.30;;;;;;5094384;28;20036;-74
2021/12/11 04:14:43;;;;;;;11.75;2.28;;;11.30;90.30;;;;;;5094496;28;20076;-74
2021/12/11 04:17:10;;;;;;;10.93;2.40;;;11.30;90.30;;;;;;5094221;28;20020;-74
2021/12/11 04:19:36;;;;;;;13.95;2.40;;;11.30;90.30;;;;;;5094211;28;20016;-73
2021/12/11 04:22:04;;;;;;;11.68;2.58;;;11.30;90.50;;;;;;5094177;28;20035;-67
2021/12/11 04:24:33;;;;;;;12.55;2.35;;;11.30;90.50;;;;;;5080281;28;20036;-66
2021/12/11 04:27:03;;;;;;;14.13;3.30;;;11.30;90.50;;;;;;5075328;28;20016;-70
2021/12/11 04:29:29;;;;;;;8.98;2.30;;;11.20;90.50;;;;;;5093832;28;20031;-68
2021/12/11 04:31:56;;;;;;;11.57;2.33;;;11.30;90.40;;;;;;5093746;28;20032;-75
2021/12/11 04:34:23;;;;;;;13.70;2.47;;;11.30;90.40;;;;;;5094047;28;20103;-67
2021/12/11 04:36:59;;;;;;;12.05;2.13;;;11.30;90.40;;;;;;5094259;28;20115;-73
2021/12/11 04:39:29;;;;;;;10.07;2.63;;;11.30;90.30;;;;;;5093891;28;20024;-75
2021/12/11 04:42:04;;;;;;;10.52;2.67;;;11.30;90.30;;;;;;5080215;28;20499;-74
2021/12/11 04:44:36;;;;;;;10.80;1.92;;;11.20;90.30;;;;;;5073516;28;20493;-74
2021/12/11 04:47:08;;;;;;;;;;;11.30;90.30;;;;;;5072334;28;20360;-75
2021/12/11 04:49:37;;;;;;;8.70;1.98;;;11.20;90.30;;;;;;5073565;28;19927;-74
2021/12/11 04:52:10;;;;;;;11.65;2.70;;;11.20;90.40;;;;;;5073549;28;20115;-75
2021/12/11 04:54:51;;;;;;;9.82;2.17;;;11.20;90.50;;;;;;5073489;28;20066;-75
2021/12/11 04:57:51;;;;;;;12.55;2.15;;;11.20;90.50;;;;;;5073302;28;20027;-75
2021/12/11 05:00:26;;;;;;;13.15;2.80;;;11.20;90.40;;;;;;5073099;28;20042;-75
2021/12/11 05:03:30;;;;;;;11.73;2.70;;;11.20;90.40;;;;;;5073442;28;20105;-74
2021/12/11 05:11:32;;;;;;;11.00;2.58;;;11.20;90.60;;;;;;5073317;28;20090;-75
2021/12/11 05:13:58;;;;;;;10.63;2.20;;;11.10;90.50;;;;;;5073014;28;20028;-74
2021/12/11 05:16:23;;;;;;;9.23;2.53;;;11.20;90.50;;;;;;5073227;28;20028;-63
2021/12/11 05:18:49;;;;;;;10.57;1.85;;;11.10;90.40;;;;;;5073133;28;20108;-64
2021/12/11 05:21:18;;;;;;;17.63;3.67;;;11.10;90.40;;;;;;5073118;28;20020;-64
2021/12/11 05:23:47;;;;;;;12.25;3.00;;;11.10;90.40;;;;;;5089974;28;20171;-63
2021/12/11 05:26:13;;;;;;;13.48;3.58;;;11.10;90.40;;;;;;5080472;28;20025;-65
2021/12/11 05:28:39;;;;;;;10.88;2.90;;;11.00;90.30;;;;;;5072698;28;20563;-63
2021/12/11 05:31:08;;;;;;;14.98;3.17;;;11.00;90.30;;;;;;5073183;28;20466;-63
2021/12/11 05:33:35;;;;;;;12.50;3.08;;;10.90;90.20;;;;;;5072769;28;20043;-63
2021/12/11 05:36:03;;;;;;;10.15;3.03;;;11.00;90.20;;;;;;5073099;28;20024;-73
2021/12/11 05:38:29;;;;;;;11.77;2.90;;;10.90;90.10;;;;;;5072825;28;20024;-63
2021/12/11 05:40:59;;;;;;;12.63;2.50;;;10.90;90.20;;;;;;5072979;28;20044;-63
2021/12/11 05:43:26;;;;;;;13.27;3.42;;;10.90;90.00;;;;;;5073006;28;20024;-63
2021/12/11 05:45:52;;;;;;;18.27;2.47;;;10.90;90.00;;;;;;5072931;28;20028;-73
2021/12/11 05:48:18;;;;;;;13.02;2.55;;;10.90;90.00;;;;;;5084038;28;20031;-74
2021/12/11 05:50:50;;;;;;;13.50;2.42;;;10.80;89.90;;;;;;5085898;28;20501;-74
2021/12/11 05:53:17;;;;;;;10.23;2.80;;;10.80;89.70;;;;;;5072624;28;20016;-71
2021/12/11 05:55:45;;;;;;;17.38;2.85;;;10.80;89.50;;;;;;5072712;28;20028;-74
2021/12/11 05:58:12;;;;;;;13.23;3.30;;;10.80;89.60;;;;;;5072659;28;20027;-72
2021/12/11 06:00:43;;;;;;;15.18;2.85;;;10.80;89.50;;;;;;5075287;28;20153;-72
2021/12/11 06:03:10;;;;;;;8.23;2.70;;;10.70;89.40;;;;;;5076713;28;20024;-74
2021/12/11 06:05:36;;;;;;;14.02;3.45;;;10.80;89.40;;;;;;5076144;28;20035;-74
2021/12/11 06:08:03;;;;;;;10.48;3.25;;;10.80;89.20;;;;;;5076636;28;20024;-73
2021/12/11 06:10:28;;;;;;;14.18;2.65;;;10.70;89.00;;;;;;5076498;28;20032;-74
2021/12/11 06:12:56;;;;;;;10.77;2.75;;;10.70;88.90;;;;;;5075123;28;20032;-74
2021/12/11 06:15:23;;;;;;;12.43;3.17;;;10.60;89.00;;;;;;5076339;28;20040;-74
2021/12/11 06:17:48;;;;;;;13.90;2.85;;;10.60;88.80;;;;;;5076419;28;20032;-72
2021/12/11 06:20:18;;;;;;;15.02;1.98;;;10.60;88.80;;;;;;5076384;28;20017;-74
2021/12/11 06:22:44;;;;;;;11.38;3.65;;;10.60;88.80;;;;;;5076300;28;20017;-74
2021/12/11 06:25:20;;;;;;;11.52;2.20;;;10.60;88.80;;;;;;5076442;28;20021;-74
2021/12/11 06:27:46;;;;;;;10.43;2.40;;;10.60;88.80;;;;;;5075977;28;20028;-74
2021/12/11 06:30:14;;;;;;;12.50;2.20;;;10.60;88.60;;;;;;5076199;28;20397;-74
2021/12/11 06:32:41;;;;;;;13.80;2.80;;;10.50;88.50;;;;;;5076660;28;20530;-74
2021/12/11 06:35:14;;;;;;;12.10;2.30;;;10.50;88.50;;;;;;5076693;28;20024;-74
2021/12/11 06:37:40;;;;;;;11.95;2.67;;;10.50;88.70;;;;;;5076198;28;20028;-66
2021/12/11 06:40:07;;;;;;;16.30;3.08;;;10.50;88.50;;;;;;5075674;28;20509;-70
2021/12/11 06:42:32;;;;;;;12.63;2.80;;;10.40;88.50;;;;;;5095972;28;20114;-72
2021/12/11 06:44:58;;;;;;;7.80;2.92;;;10.40;88.40;;;;;;5096159;28;20067;-71
2021/12/11 06:47:23;;;;;;;12.32;2.83;;;10.50;88.30;;;;;;5096129;28;20020;-73
2021/12/11 06:49:49;;;;;;;11.40;2.92;;;10.40;88.30;;;;;;5095660;28;20028;-65
2021/12/11 06:52:19;;;;;;;13.15;2.85;;;10.40;88.30;;;;;;5096366;28;20032;-68
2021/12/11 06:54:45;;;;;;;10.30;2.33;;;10.40;88.40;;;;;;5095979;28;20032;-70
2021/12/11 06:57:11;;;;;;;12.02;2.40;;;10.30;88.60;;;;;;5095753;28;20013;-65
2021/12/11 06:59:37;;;;;;;10.38;2.53;;;10.40;88.40;;;;;;5095807;28;20047;-64
2021/12/11 07:02:04;;;;;;;9.05;2.22;;;10.40;88.20;;;;;;5092569;28;20482;-70
2021/12/11 07:04:29;;;;;;;9.05;2.38;;;10.30;88.20;;;;;;5081813;28;20035;-64
2021/12/11 07:06:55;;;;;;;11.82;2.10;;;10.30;88.30;;;;;;5075081;28;20040;-63
2021/12/11 07:09:23;;;;;;;14.23;2.70;;;10.40;88.80;;;;;;5075332;28;20033;-68
2021/12/11 07:11:52;;;;;;;10.18;2.78;;;10.50;88.90;;;;;;5083953;28;20431;-72
2021/12/11 07:14:19;;;;;;;13.48;2.15;;;10.50;88.60;;;;;;5094847;28;20024;-72
2021/12/11 07:16:46;;;;;;;9.93;3.00;;;10.70;88.80;;;;;;5095019;28;20054;-67
2021/12/11 07:19:12;;;;;;;12.38;2.60;;;10.70;88.90;;;;;;5082944;28;20062;-68
2021/12/11 07:21:39;;;;;;;11.68;2.83;;;10.70;88.60;;;;;;5092971;28;20020;-64
2021/12/11 07:24:08;;;;;;;11.50;2.35;;;10.60;88.10;;;;;;5090579;28;20021;-67
2021/12/11 07:26:34;;;;;;;38.67;5.25;;;10.80;88.70;;;;;;5074434;28;20020;-64
2021/12/11 07:29:13;;;;;;;11.55;3.45;;;10.80;88.30;;;;;;5074841;28;20474;-73
2021/12/11 07:31:41;;;;;;;13.15;3.28;;;11.30;89.50;;;;;;5074503;28;20035;-63
2021/12/11 07:34:06;;;;;;;12.38;3.10;;;11.70;88.20;;;;;;5083241;28;20017;-71
2021/12/11 07:36:32;;;;;;;11.93;3.20;;;11.70;86.30;;;;;;5078313;28;20039;-73
2021/12/11 07:39:01;;;;;;;10.38;2.88;;;11.60;87.10;;;;;;5080803;28;20020;-75
2021/12/11 07:41:27;;;;;;;8.60;2.65;;;11.60;87.50;;;;;;5092976;28;20020;-76
2021/12/11 07:43:52;;;;;;;11.90;2.83;;;11.50;87.40;;;;;;5094824;28;20385;-76
2021/12/11 07:46:24;;;;;;;12.82;2.85;;;11.50;87.30;;;;;;5094579;28;20473;-75
2021/12/11 07:48:50;;;;;;;12.90;3.03;;;11.60;88.50;;;;;;5094974;28;20025;-76
2021/12/11 07:51:17;;;;;;;8.55;2.92;;;11.70;88.20;;;;;;5084537;28;20149;-75
2021/12/11 07:53:43;;;;;;;9.93;3.72;;;11.70;87.40;;;;;;5074740;28;20033;-74
2021/12/11 07:56:10;;;;;;;14.27;2.90;;;11.60;86.20;;;;;;5073869;28;20028;-77
2021/12/11 07:58:35;;;;;;;12.05;3.70;;;11.70;86.50;;;;;;5074222;28;20017;-73
2021/12/11 08:01:04;;;;;;;11.50;3.00;;;11.70;84.40;;;;;;5083799;28;20042;-73
2021/12/11 08:03:30;;;;;;;11.50;3.60;;;11.60;84.00;;;;;;5094193;28;20020;-74
2021/12/11 08:05:56;;;;;;;12.25;3.45;;;11.50;84.20;;;;;;5083879;28;20151;-72
2021/12/11 08:08:23;;;;;;;12.40;3.53;;;11.40;84.20;;;;;;5090574;28;20560;-76
2021/12/11 08:10:52;;;;;;;17.25;3.95;;;11.40;84.60;;;;;;5090272;28;20035;-77
2021/12/11 08:13:18;;;;;;;12.32;3.97;;;11.40;84.80;;;;;;5073836;28;20428;-76
2021/12/11 08:15:45;;;;;;;14.10;3.85;;;11.30;85.30;;;;;;5074056;28;20084;-78
2021/12/11 08:18:13;;;;;;;14.50;4.00;;;11.30;85.50;;;;;;5073707;28;20021;-73
2021/12/11 08:20:41;;;;;;;16.30;4.07;;;11.30;85.60;;;;;;5075752;28;20024;-78
2021/12/11 08:23:09;;;;;;;15.27;4.85;;;11.20;85.90;;;;;;5072394;28;20032;-76
2021/12/11 08:25:36;;;;;;;19.10;4.95;;;11.20;85.90;;;;;;5086120;28;20503;-71
2021/12/11 08:28:04;;;;;;;14.45;4.47;;;11.20;85.80;;;;;;5088355;28;20059;-78
2021/12/11 08:30:32;;;;;;;14.82;4.93;;;11.20;86.10;;;;;;5090649;28;20024;-77
2021/12/11 08:32:57;;;;;;;15.75;5.32;;;11.30;85.40;;;;;;5092539;28;20027;-79
2021/12/11 08:35:23;;;;;;;14.38;5.50;;;11.20;85.00;;;;;;5093903;28;20030;-76
2021/12/11 08:37:51;;;;;;;12.45;5.18;;;11.10;85.30;;;;;;5091159;28;20028;-75
2021/12/11 08:40:24;;;;;;;16.20;5.00;;;11.10;85.60;;;;;;5087839;28;20537;-80
2021/12/11 08:42:51;;;;;;;16.33;6.25;;;11.00;85.70;;;;;;5087284;28;20035;-78
2021/12/11 08:45:25;;;;;;;16.30;6.57;;;11.00;85.90;;;;;;5072494;28;20082;-75
2021/12/11 08:47:55;;;;;;;14.00;6.55;;;11.00;86.00;;;;;;5072581;28;20021;-77
2021/12/11 08:50:24;;;;;;;15.85;6.13;;;11.00;85.90;;;;;;5072003;28;20046;-77
2021/12/11 08:52:52;;;;;;;15.48;6.03;;;11.10;85.90;;;;;;5072935;28;20012;-76
2021/12/11 08:55:24;;;;;;;18.02;5.82;;;11.10;86.00;;;;;;5081537;28;20107;-79
2021/12/11 08:57:51;;;;;;;15.35;6.18;;;11.10;86.70;;;;;;5090852;28;20028;-75
2021/12/11 09:00:20;;;;;;;17.40;5.78;;;11.10;86.30;;;;;;5079086;28;20020;-74
2021/12/11 09:02:51;;;;;;;14.80;6.30;;;11.00;86.30;;;;;;5073820;28;20157;-79
2021/12/11 09:05:30;;;;;;;17.13;5.95;;;11.00;86.50;;;;;;5079808;28;20028;-76
2021/12/11 09:08:03;;;;;;;10.93;4.05;;;11.00;87.70;;;;;;5076469;28;20461;-77
2021/12/11 09:10:48;;;;;;;15.63;6.13;;;11.10;88.40;;;;;;5076430;28;20032;-77
2021/12/11 09:13:30;;;;;;;14.55;5.60;;;11.20;87.00;;;;;;5077850;28;20028;-75
2021/12/11 09:16:07;;;;;;;17.95;6.25;;;11.20;86.60;;;;;;5077634;28;20028;-69
2021/12/11 09:18:46;;;;;;;15.40;6.30;;;11.20;86.70;;;;;;5077944;28;20032;-75
2021/12/11 09:21:25;;;;;;;15.85;6.95;;;11.20;86.90;;;;;;5076230;28;20047;-73
2021/12/11 09:24:05;;;;;;;16.67;5.85;;;11.30;86.90;;;;;;5075020;28;20066;-77
2021/12/11 09:26:43;;;;;;;14.65;6.00;;;11.20;88.30;;;;;;5078352;28;20020;-64
2021/12/11 09:29:27;;;;;;;11.65;5.20;;;11.30;88.90;;;;;;5075830;28;20485;-74
2021/12/11 09:32:12;;;;;;;16.60;5.47;;;11.40;89.40;;;;;;5079118;28;20060;-70
2021/12/11 09:34:43;;;;;;;19.38;6.10;;;11.40;87.80;;;;;;5080178;28;20025;-73
2021/12/11 09:37:09;;;;;;;15.15;5.03;;;11.40;88.40;;;;;;5083049;28;20385;-74
2021/12/11 09:39:47;;;;;;;14.75;4.75;;;11.40;88.70;;;;;;5084287;28;20480;-73
2021/12/11 09:42:13;;;;;;;11.35;4.57;;;11.50;89.60;;;;;;5079110;28;20082;-64
2021/12/11 09:45:10;;;;;;;15.75;5.28;;;11.60;88.90;;;;;;5087396;28;20032;-66
2021/12/11 09:47:41;;;;;;;15.70;6.07;;;11.60;89.20;;;;;;5068587;28;20054;-75
2021/12/11 09:50:20;;;;;;;22.42;14.57;;;11.60;88.20;;;;;;5074371;28;20051;-77
2021/12/11 09:52:46;;;;;;;16.17;6.20;;;11.70;87.00;;;;;;5078331;28;20032;-64
2021/12/11 09:55:23;;;;;;;16.17;5.40;;;11.60;86.80;;;;;;5080688;28;20420;-73
2021/12/11 09:57:53;;;;;;;14.20;5.20;;;11.50;88.10;;;;;;5073731;28;20033;-72
2021/12/11 10:00:23;;;;;;;13.38;5.00;;;11.40;88.50;;;;;;5085631;28;20042;-69
2021/12/11 10:02:49;;;;;;;20.02;5.95;;;11.50;88.50;;;;;;5084269;28;20020;-75
2021/12/11 10:05:35;;;;;;;16.98;6.18;;;11.50;88.40;;;;;;5083956;28;20031;-71
2021/12/11 10:08:29;;;;;;;16.85;5.43;;;11.60;88.50;;;;;;5076828;28;20021;-65
2021/12/11 10:11:17;;;;;;;13.32;5.05;;;11.60;88.80;;;;;;5078476;28;20450;-68
2021/12/11 10:13:45;;;;;;;14.63;4.88;;;11.60;88.80;;;;;;5081917;28;20615;-64
2021/12/11 10:16:12;;;;;;;19.08;5.88;;;11.60;89.40;;;;;;5084572;28;20500;-70
2021/12/11 10:18:38;;;;;;;18.90;6.63;;;11.60;89.70;;;;;;5088028;28;20044;-65
2021/12/11 10:21:27;;;;;;;15.63;5.45;;;11.70;88.60;;;;;;5077672;28;20351;-70
2021/12/11 10:23:57;;;;;;;20.30;5.75;;;11.80;88.00;;;;;;5080676;28;20020;-74
2021/12/11 10:26:25;;;;;;;16.10;5.20;;;11.80;87.70;;;;;;5083909;28;20107;-71
2021/12/11 10:28:55;;;;;;;14.95;5.80;;;11.70;88.10;;;;;;5076541;28;20394;-74
2021/12/11 10:31:45;;;;;;;12.88;5.15;;;11.70;88.40;;;;;;5087945;28;20037;-72
2021/12/11 10:34:15;;;;;;;22.17;5.50;;;11.70;88.80;;;;;;5082800;28;20380;-73
2021/12/11 10:36:48;;;;;;;13.00;4.93;;;11.80;88.60;;;;;;5089114;28;20028;-72
2021/12/11 10:39:15;;;;;;;15.20;5.03;;;11.70;88.80;;;;;;5090409;28;20019;-74
2021/12/11 10:41:41;;;;;;;19.15;4.75;;;11.70;90.10;;;;;;5089762;28;20560;-73
2021/12/11 10:44:20;;;;;;;13.60;5.38;;;11.70;89.50;;;;;;5090785;28;20032;-72
2021/12/11 10:46:59;;;;;;;14.32;4.85;;;11.80;89.30;;;;;;5095014;28;20028;-73
2021/12/11 10:49:26;;;;;;;12.60;5.35;;;11.90;88.70;;;;;;5071308;28;20020;-66
2021/12/11 10:52:06;;;;;;;12.35;5.50;;;11.90;88.60;;;;;;5089825;28;20071;-71
2021/12/11 10:54:32;;;;;;;22.13;5.50;;;11.90;88.50;;;;;;5091483;28;20355;-73
2021/12/11 10:56:58;;;;;;;17.40;5.57;;;11.90;89.10;;;;;;5084771;28;20541;-69
2021/12/11 10:59:29;;;;;;;17.95;5.28;;;11.90;88.30;;;;;;5081183;28;20016;-66
2021/12/11 11:01:59;;;;;;;17.42;5.25;;;11.90;88.20;;;;;;5079170;28;20020;-72
2021/12/11 11:04:29;;;;;;;14.18;5.38;;;11.90;88.10;;;;;;5085027;28;20048;-75
2021/12/11 11:06:55;;;;;;;15.15;5.15;;;11.90;88.00;;;;;;5085459;28;20032;-73
2021/12/11 11:09:23;;;;;;;16.70;5.50;;;11.90;88.00;;;;;;5093156;28;20035;-73
2021/12/11 11:11:51;;;;;;;14.95;5.15;;;12.00;88.00;;;;;;5087852;28;20033;-73
2021/12/11 11:14:17;;;;;;;12.30;5.40;;;12.00;88.00;;;;;;5075249;28;20039;-71
2021/12/11 11:16:51;;;;;;;15.38;6.25;;;12.00;88.00;;;;;;5085963;28;20029;-74
2021/12/11 11:19:19;;;;;;;12.32;4.63;;;12.00;88.10;;;;;;5091199;28;20043;-71
2021/12/11 11:21:48;;;;;;;9.23;4.70;;;12.00;88.10;;;;;;5080075;28;20020;-74
2021/12/11 11:24:14;;;;;;;12.77;5.15;;;11.90;89.30;;;;;;5075123;28;20032;-75
2021/12/11 11:26:43;;;;;;;14.73;4.28;;;11.90;89.30;;;;;;5075137;28;20021;-75
2021/12/11 11:29:13;;;;;;;14.32;4.57;;;12.00;89.70;;;;;;5074889;28;20032;-76
2021/12/11 11:31:42;;;;;;;17.92;4.82;;;12.10;89.80;;;;;;5074626;28;20120;-75
2021/12/11 11:34:12;;;;;;;17.40;4.95;;;12.10;89.90;;;;;;5076634;28;20051;-76
2021/12/11 11:36:38;;;;;;;12.07;3.13;;;12.10;89.10;;;;;;5095082;28;20482;-75
2021/12/11 11:39:09;;;;;;;12.38;4.47;;;12.40;90.50;;;;;;5080654;28;20040;-76
2021/12/11 11:41:57;;;;;;;14.15;4.70;;;12.50;90.60;;;;;;5073781;28;20035;-72
2021/12/11 11:44:26;;;;;;;12.48;6.03;;;12.60;90.60;;;;;;5078052;28;20508;-75
2021/12/11 11:46:54;;;;;;;18.83;6.85;;;12.60;89.60;;;;;;5092274;28;20021;-76
2021/12/11 11:49:20;;;;;;;19.67;6.70;;;12.50;88.60;;;;;;5080472;28;20027;-72
2021/12/11 11:51:53;;;;;;;22.38;8.38;;;12.50;88.50;;;;;;5087468;28;20033;-76
2021/12/11 11:54:22;;;;;;;16.83;7.68;;;12.60;90.30;;;;;;5082397;28;20323;-76
2021/12/11 11:56:59;;;;;;;21.25;6.80;;;12.70;91.50;;;;;;5092258;28;20024;-76
2021/12/11 11:59:25;;;;;;;24.75;6.88;;;12.80;92.20;;;;;;5071827;28;20025;-73
2021/12/11 12:01:55;;;;;;;22.73;8.27;;;12.90;92.40;;;;;;5071837;28;20423;-76
2021/12/11 12:04:22;;;;;;;12.88;4.88;;;13.00;92.50;;;;;;5073556;28;20432;-74
2021/12/11 12:06:55;;;;;;;18.67;5.82;;;12.90;90.70;;;;;;5086136;28;20065;-76
2021/12/11 12:09:22;;;;;;;16.08;5.78;;;12.80;89.20;;;;;;5083501;28;20111;-77
2021/12/11 12:11:48;;;;;;;14.75;5.20;;;12.80;87.80;;;;;;5087201;28;20501;-70
2021/12/11 12:14:18;;;;;;;18.23;5.22;;;12.80;87.10;;;;;;5085226;28;20127;-70
2021/12/11 12:16:47;;;;;;;13.50;5.13;;;12.70;86.70;;;;;;5093304;28;20089;-74
2021/12/11 12:19:14;;;;;;;14.93;4.70;;;12.70;88.80;;;;;;5085765;28;20047;-73
2021/12/11 12:21:43;;;;;;;16.15;4.25;;;12.80;90.20;;;;;;5082515;28;20054;-74
2021/12/11 12:24:10;;;;;;;15.60;4.45;;;12.90;89.70;;;;;;5076807;28;20048;-74
2021/12/11 12:26:37;;;;;;;16.35;4.22;;;12.90;89.10;;;;;;5077501;28;20016;-74
2021/12/11 12:29:05;;;;;;;13.07;3.45;;;12.90;88.10;;;;;;5080503;28;20028;-72
2021/12/11 12:31:38;;;;;;;16.23;3.88;;;13.00;87.40;;;;;;5087161;28;20378;-71
2021/12/11 12:34:04;;;;;;;10.38;3.30;;;13.00;86.50;;;;;;5100183;28;20460;-73
2021/12/11 12:36:31;;;;;;;12.60;3.63;;;13.00;85.70;;;;;;5096363;28;20024;-75
2021/12/11 12:38:57;;;;;;;8.30;3.13;;;13.00;85.10;;;;;;5076256;28;20530;-76
2021/12/11 12:41:30;;;;;;;14.88;3.38;;;13.00;84.80;;;;;;5091186;28;20035;-74
2021/12/11 12:46:49;;;;;;;13.07;3.80;;;13.20;84.60;;;;;;5073873;28;20036;-76
2021/12/11 12:49:15;;;;;;;9.75;3.40;;;13.30;84.70;;;;;;5090943;28;20479;-78
2021/12/11 12:51:42;;;;;;;22.15;6.38;;;13.30;83.90;;;;;;5076777;28;20485;-74
2021/12/11 12:54:12;;;;;;;15.07;5.15;;;13.20;82.60;;;;;;5082875;28;20017;-76
2021/12/11 12:56:45;;;;;;;14.68;5.28;;;13.10;82.50;;;;;;5088987;28;20473;-75
2021/12/11 12:59:20;;;;;;;9.80;3.08;;;13.00;82.60;;;;;;5076391;28;20048;-75
2021/12/11 13:01:45;;;;;;;11.18;4.45;;;13.00;85.00;;;;;;5073936;28;20028;-75
2021/12/11 13:04:15;;;;;;;10.55;4.25;;;13.10;85.50;;;;;;5083381;28;20038;-76
2021/12/11 13:06:45;;;;;;;10.88;3.10;;;13.10;84.80;;;;;;5092407;28;20016;-76